Royal Prince — WCX8037 — position and weather

sailwx.info

Track history (hours):
 
Tides and Currents Weather Stations Pressure Air Temp Water Temp Dewpoint Dewpoint Depression Visibility Wind Speed Wind Dir Waves Ship Positions

Royal Prince

Owner: Golden Gate Scenic Steamship Corp, SAN FRANCISCO, CA. More information available from US FCC via Universal Licensing System and Coast Guard Vessel Documentation Center.

Last reported at 2016-Jan-05 17:19 UTC. Time now 2016-Feb-08 06:09 UTC.
Position N 37°52' W 122°30'.
Warning: this ship's position is 33 days out of date.

Length 28 m; draft 2.3 m.

Type: Passenger vessel. MMSI: 366975760.

Date/timePositionNaut miles runAvg speedWind from/ knotsBaromVisibWave heightAir tempDewpointWater temp
2016-Jan-05 17:19N 37°52' W 122°30'5 6.7
2016-Jan-05 16:33N 37°49' W 122°25'0 0.0
2016-Jan-04 03:33N 37°49' W 122°25'1 1.1
2016-Jan-04 02:33N 37°50' W 122°25'1 1.1
2016-Jan-04 01:33N 37°49' W 122°25'1 0.6
2016-Jan-04 00:33N 37°49' W 122°24'1 0.6
2016-Jan-03 23:33N 37°49' W 122°25'0 0.0
2016-Jan-03 22:33N 37°49' W 122°25'3 3.2
2016-Jan-03 21:33N 37°49' W 122°29'3 3.2
2016-Jan-03 20:33N 37°49' W 122°25'2 2.0
2016-Jan-03 19:33N 37°49' W 122°27'1 0.7
2016-Jan-03 18:33N 37°50' W 122°27'2 2.0
2016-Jan-03 17:33N 37°49' W 122°25'0 0.0
2016-Jan-03 03:34N 37°49' W 122°25'3 2.6
2016-Jan-03 02:33N 37°50' W 122°22'3 2.6
2016-Jan-03 01:34N 37°49' W 122°25'1 0.8
2016-Jan-03 00:34N 37°49' W 122°24'1 0.8
2016-Jan-02 23:34N 37°49' W 122°25'0 0.0
2016-Jan-02 22:34N 37°49' W 122°25'3 3.1
2016-Jan-02 21:34N 37°49' W 122°29'3 3.1
2016-Jan-02 20:34N 37°49' W 122°25'3 2.9
2016-Jan-02 19:34N 37°49' W 122°28'1 0.9
2016-Jan-02 18:34N 37°49' W 122°27'2 2.2
2016-Jan-02 17:34N 37°49' W 122°25'0 0.0
2016-Jan-02 03:33N 37°49' W 122°25'3 2.6
2016-Jan-02 02:34N 37°50' W 122°22'3 2.6
2016-Jan-02 01:33N 37°49' W 122°25'1 0.8
2016-Jan-02 00:33N 37°49' W 122°24'1 0.8
2016-Jan-01 23:33N 37°49' W 122°25'0 0.0
2016-Jan-01 22:33N 37°49' W 122°25'2 2.3
2016-Jan-01 21:33N 37°49' W 122°28'2 2.3
2016-Jan-01 20:33N 37°49' W 122°25'2 2.4
2016-Jan-01 19:33N 37°49' W 122°28'1 1.1
2016-Jan-01 18:33N 37°50' W 122°27'2 1.8
2016-Jan-01 17:33N 37°49' W 122°25'0 0.0
2016-Jan-01 09:27N 37°49' W 122°25'1 0.8
2016-Jan-01 08:33N 37°49' W 122°24'2 2.1
2016-Jan-01 07:33N 37°48' W 122°22'6 6.0
2016-Jan-01 06:33N 37°49' W 122°29'3 3.2
2016-Jan-01 05:33N 37°49' W 122°25'0 0.0
2016-Jan-01 04:33N 37°49' W 122°25'0 0.1
2016-Jan-01 03:33N 37°49' W 122°25'2 2.3
2016-Jan-01 02:33N 37°50' W 122°23'2 2.3
2016-Jan-01 01:33N 37°49' W 122°25'1 0.8
2016-Jan-01 00:33N 37°49' W 122°25'1 0.8
2015-Dec-31 23:33N 37°49' W 122°25'0 0.0
2015-Dec-31 22:33N 37°49' W 122°25'2 2.4
2015-Dec-31 21:33N 37°49' W 122°28'2 2.4
2015-Dec-31 20:33N 37°49' W 122°25'2 2.1
2015-Dec-31 19:33N 37°49' W 122°28'0 0.4
2015-Dec-31 18:33N 37°49' W 122°28'2 2.3
2015-Dec-31 17:33N 37°49' W 122°25'0 0.0
2015-Dec-31 00:34N 37°49' W 122°25'0 0.5
2015-Dec-30 23:33N 37°49' W 122°25'0 0.1
2015-Dec-30 22:33N 37°49' W 122°25'3 3.1
2015-Dec-30 21:33N 37°49' W 122°29'3 3.1
2015-Dec-30 20:33N 37°49' W 122°25'2 2.1
2015-Dec-30 19:34N 37°49' W 122°28'1 0.9
2015-Dec-30 18:33N 37°49' W 122°27'2 1.8
2015-Dec-30 17:33N 37°49' W 122°25'1 0.1
2015-Dec-30 00:34N 37°50' W 122°25'1 1.1
2015-Dec-29 23:33N 37°49' W 122°25'0 0.0
2015-Dec-29 22:34N 37°49' W 122°25'3 2.6
2015-Dec-29 21:33N 37°49' W 122°28'3 2.6
2015-Dec-29 20:34N 37°49' W 122°25'2 2.3
2015-Dec-29 19:34N 37°49' W 122°28'1 0.9
2015-Dec-29 18:33N 37°50' W 122°27'2 1.8
2015-Dec-29 17:34N 37°49' W 122°25'0 0.0
2015-Dec-29 03:33N 37°49' W 122°25'3 2.6
2015-Dec-29 02:33N 37°50' W 122°22'3 2.7
2015-Dec-29 01:33N 37°49' W 122°25'1 0.9
2015-Dec-29 00:34N 37°50' W 122°25'1 1.0
2015-Dec-28 23:33N 37°49' W 122°25'0 0.0
2015-Dec-28 22:33N 37°49' W 122°25'3 2.9
2015-Dec-28 21:33N 37°49' W 122°28'3 2.9
2015-Dec-28 20:33N 37°49' W 122°25'1 1.3
2015-Dec-28 19:33N 37°49' W 122°26'1 1.0
2015-Dec-28 18:33N 37°49' W 122°27'2 2.2
2015-Dec-28 17:33N 37°49' W 122°25'0 0.0
2015-Dec-28 16:33N 37°49' W 122°25'0 0.0
2015-Dec-28 03:33N 37°49' W 122°25'2 2.5
2015-Dec-28 02:33N 37°50' W 122°22'2 2.5
2015-Dec-28 01:33N 37°49' W 122°25'2 1.6
2015-Dec-28 00:34N 37°50' W 122°26'2 1.6
2015-Dec-27 23:33N 37°49' W 122°25'0 0.0
2015-Dec-27 22:33N 37°49' W 122°25'1 1.3
2015-Dec-27 21:33N 37°49' W 122°27'1 1.3
2015-Dec-27 20:33N 37°49' W 122°25'1 0.8
2015-Dec-27 19:33N 37°49' W 122°26'1 1.4
2015-Dec-27 18:33N 37°49' W 122°27'2 0.1
2015-Dec-27 04:04N 37°49' W 122°25'1 1.1
2015-Dec-27 03:33N 37°49' W 122°24'1 1.1
2015-Dec-27 02:33N 37°50' W 122°25'1 1.1
2015-Dec-27 01:33N 37°49' W 122°25'2 1.9
2015-Dec-27 00:33N 37°50' W 122°27'2 1.8
2015-Dec-26 23:33N 37°49' W 122°25'0 0.1
2015-Dec-26 22:33N 37°49' W 122°25'3 2.9
2015-Dec-26 21:33N 37°49' W 122°29'3 2.9
2015-Dec-26 20:33N 37°49' W 122°25'2 1.8
2015-Dec-26 19:33N 37°49' W 122°27'1 0.8
2015-Dec-26 18:33N 37°49' W 122°28'3 2.5
2015-Dec-26 17:33N 37°49' W 122°25'  
Track history (hours):
 
Tides and Currents Weather Stations Pressure Air Temp Water Temp Dewpoint Dewpoint Depression Visibility Wind Speed Wind Dir Waves Ship Positions

Royal Prince

Owner: Golden Gate Scenic Steamship Corp, SAN FRANCISCO, CA. More information available from US FCC via Universal Licensing System and Coast Guard Vessel Documentation Center.

Last reported at 2016-Jan-05 17:19 UTC. Time now 2016-Feb-08 06:09 UTC.
Position N 37°52' W 122°30'.
Warning: this ship's position is 33 days out of date.

Length 28 m; draft 2.3 m.

Type: Passenger vessel. MMSI: 366975760.

Date/timePositionNaut miles runAvg speedWind from/ knotsBaromVisibWave heightAir tempDewpointWater temp
2016-Jan-05 17:19N 37°52' W 122°30'5 6.7
2016-Jan-05 16:33N 37°49' W 122°25'0 0.0
2016-Jan-04 03:33N 37°49' W 122°25'1 1.1
2016-Jan-04 02:33N 37°50' W 122°25'1 1.1
2016-Jan-04 01:33N 37°49' W 122°25'1 0.6
2016-Jan-04 00:33N 37°49' W 122°24'1 0.6
2016-Jan-03 23:33N 37°49' W 122°25'0 0.0
2016-Jan-03 22:33N 37°49' W 122°25'3 3.2
2016-Jan-03 21:33N 37°49' W 122°29'3 3.2
2016-Jan-03 20:33N 37°49' W 122°25'2 2.0
2016-Jan-03 19:33N 37°49' W 122°27'1 0.7
2016-Jan-03 18:33N 37°50' W 122°27'2 2.0
2016-Jan-03 17:33N 37°49' W 122°25'0 0.0
2016-Jan-03 03:34N 37°49' W 122°25'3 2.6
2016-Jan-03 02:33N 37°50' W 122°22'3 2.6
2016-Jan-03 01:34N 37°49' W 122°25'1 0.8
2016-Jan-03 00:34N 37°49' W 122°24'1 0.8
2016-Jan-02 23:34N 37°49' W 122°25'0 0.0
2016-Jan-02 22:34N 37°49' W 122°25'3 3.1
2016-Jan-02 21:34N 37°49' W 122°29'3 3.1
2016-Jan-02 20:34N 37°49' W 122°25'3 2.9
2016-Jan-02 19:34N 37°49' W 122°28'1 0.9
2016-Jan-02 18:34N 37°49' W 122°27'2 2.2
2016-Jan-02 17:34N 37°49' W 122°25'0 0.0
2016-Jan-02 03:33N 37°49' W 122°25'3 2.6
2016-Jan-02 02:34N 37°50' W 122°22'3 2.6
2016-Jan-02 01:33N 37°49' W 122°25'1 0.8
2016-Jan-02 00:33N 37°49' W 122°24'1 0.8
2016-Jan-01 23:33N 37°49' W 122°25'0 0.0
2016-Jan-01 22:33N 37°49' W 122°25'2 2.3
2016-Jan-01 21:33N 37°49' W 122°28'2 2.3
2016-Jan-01 20:33N 37°49' W 122°25'2 2.4
2016-Jan-01 19:33N 37°49' W 122°28'1 1.1
2016-Jan-01 18:33N 37°50' W 122°27'2 1.8
2016-Jan-01 17:33N 37°49' W 122°25'0 0.0
2016-Jan-01 09:27N 37°49' W 122°25'1 0.8
2016-Jan-01 08:33N 37°49' W 122°24'2 2.1
2016-Jan-01 07:33N 37°48' W 122°22'6 6.0
2016-Jan-01 06:33N 37°49' W 122°29'3 3.2
2016-Jan-01 05:33N 37°49' W 122°25'0 0.0
2016-Jan-01 04:33N 37°49' W 122°25'0 0.1
2016-Jan-01 03:33N 37°49' W 122°25'2 2.3
2016-Jan-01 02:33N 37°50' W 122°23'2 2.3
2016-Jan-01 01:33N 37°49' W 122°25'1 0.8
2016-Jan-01 00:33N 37°49' W 122°25'1 0.8
2015-Dec-31 23:33N 37°49' W 122°25'0 0.0
2015-Dec-31 22:33N 37°49' W 122°25'2 2.4
2015-Dec-31 21:33N 37°49' W 122°28'2 2.4
2015-Dec-31 20:33N 37°49' W 122°25'2 2.1
2015-Dec-31 19:33N 37°49' W 122°28'0 0.4
2015-Dec-31 18:33N 37°49' W 122°28'2 2.3
2015-Dec-31 17:33N 37°49' W 122°25'0 0.0
2015-Dec-31 00:34N 37°49' W 122°25'0 0.5
2015-Dec-30 23:33N 37°49' W 122°25'0 0.1
2015-Dec-30 22:33N 37°49' W 122°25'3 3.1
2015-Dec-30 21:33N 37°49' W 122°29'3 3.1
2015-Dec-30 20:33N 37°49' W 122°25'2 2.1
2015-Dec-30 19:34N 37°49' W 122°28'1 0.9
2015-Dec-30 18:33N 37°49' W 122°27'2 1.8
2015-Dec-30 17:33N 37°49' W 122°25'1 0.1
2015-Dec-30 00:34N 37°50' W 122°25'1 1.1
2015-Dec-29 23:33N 37°49' W 122°25'0 0.0
2015-Dec-29 22:34N 37°49' W 122°25'3 2.6
2015-Dec-29 21:33N 37°49' W 122°28'3 2.6
2015-Dec-29 20:34N 37°49' W 122°25'2 2.3
2015-Dec-29 19:34N 37°49' W 122°28'1 0.9
2015-Dec-29 18:33N 37°50' W 122°27'2 1.8
2015-Dec-29 17:34N 37°49' W 122°25'0 0.0
2015-Dec-29 03:33N 37°49' W 122°25'3 2.6
2015-Dec-29 02:33N 37°50' W 122°22'3 2.7
2015-Dec-29 01:33N 37°49' W 122°25'1 0.9
2015-Dec-29 00:34N 37°50' W 122°25'1 1.0
2015-Dec-28 23:33N 37°49' W 122°25'0 0.0
2015-Dec-28 22:33N 37°49' W 122°25'3 2.9
2015-Dec-28 21:33N 37°49' W 122°28'3 2.9
2015-Dec-28 20:33N 37°49' W 122°25'1 1.3
2015-Dec-28 19:33N 37°49' W 122°26'1 1.0
2015-Dec-28 18:33N 37°49' W 122°27'2 2.2
2015-Dec-28 17:33N 37°49' W 122°25'0 0.0
2015-Dec-28 16:33N 37°49' W 122°25'0 0.0
2015-Dec-28 03:33N 37°49' W 122°25'2 2.5
2015-Dec-28 02:33N 37°50' W 122°22'2 2.5
2015-Dec-28 01:33N 37°49' W 122°25'2 1.6
2015-Dec-28 00:34N 37°50' W 122°26'2 1.6
2015-Dec-27 23:33N 37°49' W 122°25'0 0.0
2015-Dec-27 22:33N 37°49' W 122°25'1 1.3
2015-Dec-27 21:33N 37°49' W 122°27'1 1.3
2015-Dec-27 20:33N 37°49' W 122°25'1 0.8
2015-Dec-27 19:33N 37°49' W 122°26'1 1.4
2015-Dec-27 18:33N 37°49' W 122°27'2 0.1
2015-Dec-27 04:04N 37°49' W 122°25'1 1.1
2015-Dec-27 03:33N 37°49' W 122°24'1 1.1
2015-Dec-27 02:33N 37°50' W 122°25'1 1.1
2015-Dec-27 01:33N 37°49' W 122°25'2 1.9
2015-Dec-27 00:33N 37°50' W 122°27'2 1.8
2015-Dec-26 23:33N 37°49' W 122°25'0 0.1
2015-Dec-26 22:33N 37°49' W 122°25'3 2.9
2015-Dec-26 21:33N 37°49' W 122°29'3 2.9
2015-Dec-26 20:33N 37°49' W 122°25'2 1.8
2015-Dec-26 19:33N 37°49' W 122°27'1 0.8
2015-Dec-26 18:33N 37°49' W 122°28'3 2.5
2015-Dec-26 17:33N 37°49' W 122°25'  

Dump ship's entire track history